createdAt,value
2019-05-23T00:04:11.035Z,21.77
2019-05-23T00:09:18.739Z,22.25
2019-05-23T00:14:26.477Z,18.16
2019-05-23T00:19:34.348Z,19.83
2019-05-23T00:24:41.975Z,17.84
2019-05-23T00:29:49.713Z,19.16
2019-05-23T00:34:57.524Z,19.94
2019-05-23T00:40:05.233Z,18.83
2019-05-23T00:45:13.061Z,22.15
2019-05-23T00:50:21.826Z,23.69
2019-05-23T00:55:29.425Z,22.71
2019-05-23T01:00:37.173Z,25.82
2019-05-23T01:05:44.833Z,22.67
2019-05-23T01:10:52.526Z,25.24
2019-05-23T01:16:00.153Z,24.20
2019-05-23T01:21:08.067Z,23.60
2019-05-23T01:26:16.963Z,23.45
2019-05-23T01:31:24.781Z,24.86
2019-05-23T01:36:32.422Z,23.33
2019-05-23T01:41:40.081Z,24.72
2019-05-23T01:46:47.792Z,23.91
2019-05-23T01:51:55.710Z,23.43
2019-05-23T01:57:03.514Z,22.35
2019-05-23T02:02:11.215Z,21.60
2019-05-23T02:07:18.913Z,20.27
2019-05-23T02:12:26.788Z,21.52
2019-05-23T02:17:34.549Z,22.42
2019-05-23T02:22:42.235Z,21.98
2019-05-23T02:27:49.984Z,19.95
2019-05-23T02:32:57.914Z,22.87
2019-05-23T02:38:05.707Z,18.23
2019-05-23T02:43:13.659Z,19.29
2019-05-23T02:48:21.485Z,19.17
2019-05-23T02:53:29.283Z,18.84
2019-05-23T02:58:37.125Z,18.18
2019-05-23T03:03:44.976Z,18.99
2019-05-23T03:08:52.583Z,18.26
2019-05-23T03:14:00.269Z,17.89
2019-05-23T03:19:08.179Z,18.94
2019-05-23T03:24:16.070Z,18.07
2019-05-23T03:29:23.726Z,17.64
2019-05-23T03:34:31.468Z,19.08
2019-05-23T03:39:39.326Z,17.17
2019-05-23T03:44:46.958Z,17.14
2019-05-23T03:49:54.649Z,15.47
2019-05-23T03:55:02.329Z,18.65
2019-05-23T04:00:09.994Z,16.70
2019-05-23T04:05:18.274Z,16.44
2019-05-23T04:10:26.114Z,15.20
2019-05-23T04:15:33.874Z,15.34
2019-05-23T04:20:41.543Z,12.76
2019-05-23T04:25:49.237Z,11.09
2019-05-23T04:30:56.905Z,11.05
2019-05-23T04:36:04.831Z,12.30
2019-05-23T04:41:12.552Z,11.89
2019-05-23T04:46:20.504Z,12.04
2019-05-23T04:51:28.232Z,12.52
2019-05-23T04:56:36.098Z,11.93
2019-05-23T05:01:43.961Z,12.22
2019-05-23T05:06:51.590Z,11.75
2019-05-23T05:11:59.370Z,10.66
2019-05-23T05:17:07.190Z,11.21
2019-05-23T05:22:15.015Z,10.19
2019-05-23T05:27:22.830Z,9.92
2019-05-23T05:32:44.068Z,10.87
2019-05-23T05:37:38.247Z,11.33
2019-05-23T05:42:45.874Z,10.21
2019-05-23T05:47:53.679Z,11.80
2019-05-23T05:53:01.327Z,10.95
2019-05-23T05:58:08.963Z,12.86
2019-05-23T06:03:16.570Z,10.86
2019-05-23T06:08:24.371Z,10.32
2019-05-23T06:13:32.053Z,10.05
2019-05-23T06:18:39.713Z,10.15
2019-05-23T06:23:47.553Z,11.54
2019-05-23T06:28:55.453Z,9.78
2019-05-23T06:34:03.124Z,9.49
2019-05-23T06:39:10.809Z,12.27
2019-05-23T06:44:18.549Z,10.28
2019-05-23T06:49:26.150Z,9.90
2019-05-23T06:54:33.790Z,9.37
2019-05-23T06:59:41.485Z,10.15
2019-05-23T07:04:49.439Z,11.86
2019-05-23T07:09:57.127Z,10.01
2019-05-23T07:15:05.689Z,7.64
2019-05-23T07:20:13.393Z,8.99
2019-05-23T07:25:22.122Z,6.88
2019-05-23T07:30:29.837Z,8.09
2019-05-23T07:35:37.929Z,7.75
2019-05-23T07:40:45.697Z,9.46
2019-05-23T07:45:53.698Z,8.02
2019-05-23T07:51:01.388Z,8.26
2019-05-23T07:56:09.091Z,7.61
2019-05-23T08:01:16.786Z,5.89
2019-05-23T08:06:24.617Z,6.95
2019-05-23T08:11:32.438Z,5.13
2019-05-23T08:16:40.251Z,4.60
2019-05-23T08:21:48.052Z,5.19
2019-05-23T08:26:55.939Z,5.48
2019-05-23T08:32:03.759Z,11.00
2019-05-23T08:37:11.556Z,5.52
2019-05-23T08:42:19.322Z,5.49
2019-05-23T08:47:27.241Z,5.73
2019-05-23T08:52:34.942Z,4.28
2019-05-23T08:57:42.845Z,8.03
2019-05-23T09:02:50.624Z,4.05
2019-05-23T09:07:58.502Z,6.50
2019-05-23T09:13:06.255Z,4.65
2019-05-23T09:18:14.230Z,3.19
2019-05-23T09:23:21.888Z,4.38
2019-05-23T09:28:29.525Z,3.86
2019-05-23T09:33:37.238Z,4.18
2019-05-23T09:38:44.919Z,3.90
2019-05-23T09:43:52.581Z,5.62
2019-05-23T09:49:00.441Z,6.17
2019-05-23T09:54:08.093Z,2.79
2019-05-23T09:59:15.847Z,4.79
2019-05-23T10:04:23.544Z,3.77
2019-05-23T10:09:31.174Z,2.59
2019-05-23T10:14:38.834Z,4.31
2019-05-23T10:19:46.612Z,4.89
2019-05-23T10:24:54.339Z,4.50
2019-05-23T10:30:02.201Z,3.16
2019-05-23T10:35:10.070Z,2.41
2019-05-23T10:40:17.951Z,2.66
2019-05-23T10:45:25.774Z,3.19
2019-05-23T10:50:44.153Z,2.47
2019-05-23T10:55:40.966Z,3.34
2019-05-23T11:00:48.809Z,3.34
2019-05-23T11:05:56.594Z,4.45
2019-05-23T11:11:04.413Z,3.93
2019-05-23T11:16:12.125Z,2.81
2019-05-23T11:21:19.985Z,2.31
2019-05-23T11:26:27.669Z,3.37
2019-05-23T11:31:35.566Z,4.34
2019-05-23T11:36:43.543Z,3.58
2019-05-23T11:41:50.447Z,2.43
2019-05-23T11:46:58.101Z,3.19
2019-05-23T11:52:06.110Z,3.01
2019-05-23T11:57:13.778Z,2.33
2019-05-23T12:02:21.586Z,4.49
2019-05-23T12:07:29.222Z,2.48
2019-05-23T12:12:36.993Z,2.47
2019-05-23T12:17:44.770Z,2.39
2019-05-23T12:22:52.586Z,3.56
2019-05-23T12:28:00.172Z,3.59
2019-05-23T12:33:07.957Z,3.82
2019-05-23T12:38:15.701Z,4.72
2019-05-23T12:43:23.459Z,3.29
2019-05-23T12:48:31.227Z,4.23
2019-05-23T12:53:38.992Z,5.27
2019-05-23T12:58:46.670Z,3.56
2019-05-23T13:03:54.417Z,4.95
2019-05-23T13:09:02.076Z,7.95
2019-05-23T13:14:09.751Z,4.74
2019-05-23T13:19:17.442Z,4.00
2019-05-23T13:24:25.205Z,3.64
2019-05-23T13:29:32.856Z,4.67
2019-05-23T13:34:41.435Z,3.42
2019-05-23T13:39:50.304Z,4.92
2019-05-23T13:44:56.377Z,4.21
2019-05-23T13:50:04.386Z,5.44
2019-05-23T13:55:12.086Z,5.92
2019-05-23T14:00:19.671Z,2.89
2019-05-23T14:05:27.468Z,5.04
2019-05-23T14:10:35.257Z,2.23
2019-05-23T14:15:43.059Z,4.63
2019-05-23T14:20:50.742Z,4.60
2019-05-23T14:25:58.491Z,4.83
2019-05-23T14:31:06.215Z,3.98
2019-05-23T14:36:14.011Z,4.55
2019-05-23T14:41:21.766Z,3.97
2019-05-23T14:46:29.535Z,8.55
2019-05-23T14:51:37.310Z,7.88
2019-05-23T14:56:45.034Z,6.61
2019-05-23T15:01:52.748Z,5.27
2019-05-23T15:07:00.507Z,5.13
2019-05-23T15:12:08.202Z,5.92
2019-05-23T15:17:15.970Z,3.59
2019-05-23T15:22:23.589Z,4.56
2019-05-23T15:27:33.254Z,7.05
2019-05-23T15:32:39.055Z,4.49
2019-05-23T15:37:46.794Z,4.69
2019-05-23T15:42:54.497Z,6.66
2019-05-23T15:48:02.134Z,4.21
2019-05-23T15:53:10.933Z,7.21
2019-05-23T15:58:22.112Z,4.06
2019-05-23T16:03:26.047Z,3.82
2019-05-23T16:08:34.132Z,5.84
2019-05-23T16:13:41.870Z,5.35
2019-05-23T16:18:49.690Z,4.55
2019-05-23T16:23:57.477Z,6.01
2019-05-23T16:29:05.245Z,5.89
2019-05-23T16:34:13.005Z,5.01
2019-05-23T16:39:20.720Z,5.55
2019-05-23T16:44:28.511Z,5.77
2019-05-23T16:49:36.273Z,5.16
2019-05-23T16:54:43.931Z,5.88
2019-05-23T16:59:51.730Z,4.65
2019-05-23T17:05:21.129Z,5.42
2019-05-23T17:10:28.813Z,6.14
2019-05-23T17:15:36.569Z,5.75
2019-05-23T17:20:44.363Z,5.65
2019-05-23T17:25:52.085Z,5.43
2019-05-23T17:30:59.894Z,5.56
2019-05-23T17:36:08.453Z,5.38
2019-05-23T17:41:16.390Z,5.56
2019-05-23T17:46:24.076Z,5.19
2019-05-23T17:51:32.087Z,4.96
2019-05-23T17:56:39.738Z,4.72
2019-05-23T18:01:47.932Z,7.13
2019-05-23T18:06:55.661Z,5.70
2019-05-23T18:12:03.878Z,4.89
2019-05-23T18:17:11.574Z,5.31
2019-05-23T18:22:19.337Z,4.03
2019-05-23T18:27:27.077Z,4.91
2019-05-23T18:32:34.779Z,16.32
2019-05-23T18:37:43.356Z,18.18
2019-05-23T18:42:51.093Z,19.21
2019-05-23T18:47:58.841Z,19.79
2019-05-23T18:53:07.438Z,19.38
2019-05-23T18:58:19.044Z,21.65
2019-05-23T19:03:22.595Z,21.24
2019-05-23T19:08:30.310Z,23.94
2019-05-23T19:13:38.108Z,22.37
2019-05-23T19:18:45.754Z,21.42
2019-05-23T19:23:53.478Z,20.09
2019-05-23T19:29:01.328Z,20.15
2019-05-23T19:34:09.018Z,20.56
2019-05-23T19:39:17.651Z,19.90
2019-05-23T19:44:25.394Z,21.31
2019-05-23T19:49:33.241Z,21.52
2019-05-23T19:54:41.867Z,19.10
2019-05-23T19:59:49.697Z,21.06
2019-05-23T20:04:57.773Z,18.46
2019-05-23T20:10:05.589Z,19.85
2019-05-23T20:15:13.362Z,21.72
2019-05-23T20:20:21.163Z,19.14
2019-05-23T20:25:28.851Z,20.67
2019-05-23T20:30:36.613Z,20.59
2019-05-23T20:35:44.445Z,21.94
2019-05-23T20:40:52.243Z,21.85
2019-05-23T20:46:00.096Z,21.19
2019-05-23T20:51:07.957Z,20.22
2019-05-23T20:56:15.823Z,21.83
2019-05-23T21:01:24.350Z,20.51
2019-05-23T21:06:32.163Z,20.52
2019-05-23T21:11:39.893Z,22.68
2019-05-23T21:16:47.565Z,22.97
2019-05-23T21:21:55.372Z,25.38
2019-05-23T21:27:03.515Z,24.58
2019-05-23T21:32:11.286Z,25.15
2019-05-23T21:37:18.789Z,22.44
2019-05-23T21:42:26.495Z,22.41
2019-05-23T21:47:34.357Z,25.45
2019-05-23T21:52:42.066Z,23.79
2019-05-23T21:57:50.811Z,23.74
2019-05-23T22:02:58.550Z,24.08
2019-05-23T22:08:06.347Z,27.36
2019-05-23T22:13:14.168Z,23.42
2019-05-23T22:18:21.985Z,23.91
2019-05-23T22:23:29.664Z,24.31
2019-05-23T22:28:37.810Z,25.27
2019-05-23T22:33:45.507Z,26.94
2019-05-23T22:38:53.211Z,27.09
2019-05-23T22:44:00.874Z,26.34
2019-05-23T22:49:08.664Z,26.26
2019-05-23T22:54:16.474Z,27.88
2019-05-23T22:59:24.677Z,27.47
2019-05-23T23:04:32.520Z,29.53
2019-05-23T23:09:40.185Z,26.63
2019-05-23T23:14:47.954Z,28.52
2019-05-23T23:19:55.812Z,29.12
2019-05-23T23:25:04.313Z,30.32
2019-05-23T23:30:12.385Z,28.95
2019-05-23T23:35:20.232Z,29.03
2019-05-23T23:40:28.134Z,29.65
2019-05-23T23:45:35.948Z,29.91
2019-05-23T23:50:43.829Z,28.58
2019-05-23T23:55:51.497Z,31.36
